This is the latest recevied weather packets stored in our database for station/object IZ2XCK-13. If no packets are shown the sender has not sent any weather packets the latest 10 day(s).
| Time | Temp. | Humidity | Pressure | Rain* | Wind** | Luminosity | Snow |
|---|---|---|---|---|---|---|---|
| 1778000729 | 12.78° C | 90% | 1013.9 hPa | - | - | - | - |
| 1777999529 | 13.33° C | 87% | 1014 hPa | - | - | - | - |
| 1777998328 | 12.78° C | 99% | 1014.2 hPa | - | - | - | - |
| 1777997128 | 13.89° C | 87% | 1014.1 hPa | - | - | - | - |
| 1777995928 | 13.33° C | 95% | 1014.1 hPa | - | - | - | - |
| 1777994727 | 13.89° C | 81% | 1014.2 hPa | - | - | - | - |
| 1777993527 | 13.89° C | 80% | 1014.2 hPa | - | - | - | - |
| 1777992327 | 13.33° C | 85% | 1014.2 hPa | - | - | - | - |
| 1777991126 | 13.33° C | 92% | 1014.1 hPa | - | - | - | - |
| 1777989926 | 13.89° C | 80% | 1014.2 hPa | - | - | - | - |
| 1777988726 | 13.33° C | 96% | 1014.5 hPa | - | - | - | - |
| 1777987526 | 13.89° C | 77% | 1014.7 hPa | - | - | - | - |
| 1777986325 | 14.44° C | 80% | 1014.7 hPa | - | - | - | - |
| 1777985125 | 14.44° C | 75% | 1014.6 hPa | - | - | - | - |
| 1777983925 | 13.89° C | 79% | 1014.6 hPa | - | - | - | - |
| 1777982724 | 12.78° C | 90% | 1014.5 hPa | - | - | - | - |
| 1777981524 | 13.33° C | 91% | 1014.5 hPa | - | - | - | - |
| 1777980324 | 13.33° C | 94% | 1014.6 hPa | - | - | - | - |
| 1777979123 | 13.33° C | 95% | 1014.5 hPa | - | - | - | - |
| 1777977923 | 14.44° C | 78% | 1014.6 hPa | - | - | - | - |
| 1777976723 | 13.33° C | 91% | 1014.8 hPa | - | - | - | - |
| 1777975522 | 12.78° C | 87% | 1014.8 hPa | - | - | - | - |
| 1777974322 | 12.78° C | 87% | 1015 hPa | - | - | - | - |
| 1777973122 | 12.78° C | 79% | 1015.1 hPa | - | - | - | - |
| 1777971921 | 13.89° C | 64% | 1015.2 hPa | - | - | - | - |
* Rain since midnight (hover to see other rain measurements)
** Current wind speed in m/s (hover to see current wind gust speed)